METAR Data

Data at: 2155 UTC 01 Dec 2021

METAR for:KBID (Block Island Arpt, RI, US)
Text:KBID 012056Z AUTO 25009KT 10SM CLR 07/M02 A3013 RMK AO2 SLP205 6//// T00671022 50003
Temperature: 6.7°C ( 44°F)
Dewpoint: -2.2°C ( 28°F) [RH = 53%]
Pressure (altimeter):30.13 inches Hg (1020.4 mb) [Sea level pressure: 1020.5 mb]
Winds:from the WSW (250 degrees) at 10 MPH (9 knots; 4.6 m/s)
Visibility:10 or more sm (16+ km)
Ceiling:at least 12,000 feet AGL
Clouds:sky clear below 12,000 feet AGL
QC Flag:automated observation with no human augmentation